sensor_id;sensor_type;location;lat;lon;timestamp;temperature;humidity
24860;DHT22;12936;52.006;4.350;2023-03-03T00:00:29;4.70;99.90
24860;DHT22;12936;52.006;4.350;2023-03-03T00:03:01;4.80;99.90
24860;DHT22;12936;52.006;4.350;2023-03-03T00:05:31;4.70;99.90
24860;DHT22;12936;52.006;4.350;2023-03-03T00:08:00;4.70;99.90
24860;DHT22;12936;52.006;4.350;2023-03-03T00:10:28;4.70;99.90
24860;DHT22;12936;52.006;4.350;2023-03-03T00:12:56;4.70;99.90
24860;DHT22;12936;52.006;4.350;2023-03-03T00:15:26;4.70;99.90
24860;DHT22;12936;52.006;4.350;2023-03-03T00:17:55;4.70;99.90
24860;DHT22;12936;52.006;4.350;2023-03-03T00:20:33;4.70;99.90
24860;DHT22;12936;52.006;4.350;2023-03-03T00:23:23;4.70;99.90
24860;DHT22;12936;52.006;4.350;2023-03-03T00:25:53;4.70;99.90
24860;DHT22;12936;52.006;4.350;2023-03-03T00:28:24;4.70;99.90
24860;DHT22;12936;52.006;4.350;2023-03-03T00:30:54;4.70;99.90
24860;DHT22;12936;52.006;4.350;2023-03-03T00:33:32;4.70;99.90
24860;DHT22;12936;52.006;4.350;2023-03-03T00:36:30;4.60;99.90
24860;DHT22;12936;52.006;4.350;2023-03-03T00:39:25;4.70;99.90
24860;DHT22;12936;52.006;4.350;2023-03-03T00:41:53;4.60;99.90
24860;DHT22;12936;52.006;4.350;2023-03-03T00:44:34;4.60;99.90
24860;DHT22;12936;52.006;4.350;2023-03-03T00:47:27;4.60;99.90
24860;DHT22;12936;52.006;4.350;2023-03-03T00:50:25;4.60;99.90
24860;DHT22;12936;52.006;4.350;2023-03-03T00:53:10;4.60;99.90
24860;DHT22;12936;52.006;4.350;2023-03-03T00:55:38;4.60;99.90
24860;DHT22;12936;52.006;4.350;2023-03-03T00:58:07;4.50;99.90
24860;DHT22;12936;52.006;4.350;2023-03-03T01:00:36;4.60;99.90
24860;DHT22;12936;52.006;4.350;2023-03-03T01:03:06;4.50;99.90
24860;DHT22;12936;52.006;4.350;2023-03-03T01:05:39;4.50;99.90
24860;DHT22;12936;52.006;4.350;2023-03-03T01:08:07;4.50;99.90
24860;DHT22;12936;52.006;4.350;2023-03-03T01:10:38;4.50;99.90
24860;DHT22;12936;52.006;4.350;2023-03-03T01:13:07;4.60;99.90
24860;DHT22;12936;52.006;4.350;2023-03-03T01:15:39;4.60;99.90
24860;DHT22;12936;52.006;4.350;2023-03-03T01:18:08;4.50;99.90
24860;DHT22;12936;52.006;4.350;2023-03-03T01:20:39;4.50;99.90
24860;DHT22;12936;52.006;4.350;2023-03-03T01:23:07;4.50;99.90
24860;DHT22;12936;52.006;4.350;2023-03-03T01:25:36;4.50;99.90
24860;DHT22;12936;52.006;4.350;2023-03-03T01:28:04;4.50;99.90
24860;DHT22;12936;52.006;4.350;2023-03-03T01:30:32;4.50;99.90
24860;DHT22;12936;52.006;4.350;2023-03-03T01:33:00;4.50;99.90
24860;DHT22;12936;52.006;4.350;2023-03-03T01:35:30;4.40;99.90
24860;DHT22;12936;52.006;4.350;2023-03-03T01:37:59;4.50;99.90
24860;DHT22;12936;52.006;4.350;2023-03-03T01:40:29;4.50;99.90
24860;DHT22;12936;52.006;4.350;2023-03-03T01:42:58;4.50;99.90
24860;DHT22;12936;52.006;4.350;2023-03-03T01:45:28;4.50;99.90
24860;DHT22;12936;52.006;4.350;2023-03-03T01:47:59;4.50;99.90
24860;DHT22;12936;52.006;4.350;2023-03-03T01:50:36;4.50;99.90
24860;DHT22;12936;52.006;4.350;2023-03-03T01:53:13;4.50;99.90
24860;DHT22;12936;52.006;4.350;2023-03-03T01:55:43;4.50;99.90
24860;DHT22;12936;52.006;4.350;2023-03-03T01:58:15;4.50;99.90
24860;DHT22;12936;52.006;4.350;2023-03-03T02:00:49;4.50;99.90
24860;DHT22;12936;52.006;4.350;2023-03-03T02:03:19;4.50;99.90
24860;DHT22;12936;52.006;4.350;2023-03-03T02:05:48;4.50;99.90
24860;DHT22;12936;52.006;4.350;2023-03-03T02:08:21;4.50;99.90
24860;DHT22;12936;52.006;4.350;2023-03-03T02:10:50;4.50;99.90
24860;DHT22;12936;52.006;4.350;2023-03-03T02:13:21;4.50;99.90
24860;DHT22;12936;52.006;4.350;2023-03-03T02:15:49;4.40;99.90
24860;DHT22;12936;52.006;4.350;2023-03-03T02:18:19;4.40;99.90
24860;DHT22;12936;52.006;4.350;2023-03-03T02:20:56;4.40;99.90
24860;DHT22;12936;52.006;4.350;2023-03-03T02:23:30;4.50;99.90
24860;DHT22;12936;52.006;4.350;2023-03-03T02:26:09;4.40;99.90
24860;DHT22;12936;52.006;4.350;2023-03-03T02:28:39;4.40;99.90
24860;DHT22;12936;52.006;4.350;2023-03-03T02:31:10;4.40;99.90
24860;DHT22;12936;52.006;4.350;2023-03-03T02:33:39;4.40;99.90
24860;DHT22;12936;52.006;4.350;2023-03-03T02:36:11;4.40;99.90
24860;DHT22;12936;52.006;4.350;2023-03-03T02:38:43;4.40;99.90
24860;DHT22;12936;52.006;4.350;2023-03-03T02:41:20;4.40;99.90
24860;DHT22;12936;52.006;4.350;2023-03-03T02:43:54;4.40;99.90
24860;DHT22;12936;52.006;4.350;2023-03-03T02:46:24;4.40;99.90
24860;DHT22;12936;52.006;4.350;2023-03-03T02:48:52;4.40;99.90
24860;DHT22;12936;52.006;4.350;2023-03-03T02:51:20;4.40;99.90
24860;DHT22;12936;52.006;4.350;2023-03-03T02:53:48;4.40;99.90
24860;DHT22;12936;52.006;4.350;2023-03-03T02:56:18;4.40;99.90
24860;DHT22;12936;52.006;4.350;2023-03-03T02:58:46;4.30;99.90
24860;DHT22;12936;52.006;4.350;2023-03-03T03:01:14;4.40;99.90
24860;DHT22;12936;52.006;4.350;2023-03-03T03:03:43;4.30;99.90
24860;DHT22;12936;52.006;4.350;2023-03-03T03:06:11;4.30;99.90
24860;DHT22;12936;52.006;4.350;2023-03-03T03:08:39;4.30;99.90
24860;DHT22;12936;52.006;4.350;2023-03-03T03:11:08;4.40;99.90
24860;DHT22;12936;52.006;4.350;2023-03-03T03:13:37;4.30;99.90
24860;DHT22;12936;52.006;4.350;2023-03-03T03:16:06;4.30;99.90
24860;DHT22;12936;52.006;4.350;2023-03-03T03:18:34;4.30;99.90
24860;DHT22;12936;52.006;4.350;2023-03-03T03:21:06;4.30;99.90
24860;DHT22;12936;52.006;4.350;2023-03-03T03:23:35;4.30;99.90
24860;DHT22;12936;52.006;4.350;2023-03-03T03:26:04;4.30;99.90
24860;DHT22;12936;52.006;4.350;2023-03-03T03:28:34;4.30;99.90
24860;DHT22;12936;52.006;4.350;2023-03-03T03:31:05;4.30;99.90
24860;DHT22;12936;52.006;4.350;2023-03-03T03:33:34;4.20;99.90
24860;DHT22;12936;52.006;4.350;2023-03-03T03:36:05;4.30;99.90
24860;DHT22;12936;52.006;4.350;2023-03-03T03:38:35;4.20;99.90
24860;DHT22;12936;52.006;4.350;2023-03-03T03:41:05;4.20;99.90
24860;DHT22;12936;52.006;4.350;2023-03-03T03:43:35;4.20;99.90
24860;DHT22;12936;52.006;4.350;2023-03-03T03:46:12;4.20;99.90
24860;DHT22;12936;52.006;4.350;2023-03-03T03:48:41;4.20;99.90
24860;DHT22;12936;52.006;4.350;2023-03-03T03:51:12;4.20;99.90
24860;DHT22;12936;52.006;4.350;2023-03-03T03:53:40;4.20;99.90
24860;DHT22;12936;52.006;4.350;2023-03-03T03:56:08;4.10;99.90
24860;DHT22;12936;52.006;4.350;2023-03-03T03:58:36;4.10;99.90
24860;DHT22;12936;52.006;4.350;2023-03-03T04:01:07;4.10;99.90
24860;DHT22;12936;52.006;4.350;2023-03-03T04:03:35;4.10;99.90
24860;DHT22;12936;52.006;4.350;2023-03-03T04:06:03;4.10;99.90
24860;DHT22;12936;52.006;4.350;2023-03-03T04:08:32;4.10;99.90
24860;DHT22;12936;52.006;4.350;2023-03-03T04:11:00;4.10;99.90
24860;DHT22;12936;52.006;4.350;2023-03-03T04:13:28;4.00;99.90
24860;DHT22;12936;52.006;4.350;2023-03-03T04:15:57;4.00;99.90
24860;DHT22;12936;52.006;4.350;2023-03-03T04:18:27;4.00;99.90
24860;DHT22;12936;52.006;4.350;2023-03-03T04:20:55;4.00;99.90
24860;DHT22;12936;52.006;4.350;2023-03-03T04:23:23;4.00;99.90
24860;DHT22;12936;52.006;4.350;2023-03-03T04:25:51;4.10;99.90
24860;DHT22;12936;52.006;4.350;2023-03-03T04:28:19;4.00;99.90
24860;DHT22;12936;52.006;4.350;2023-03-03T04:30:47;4.00;99.90
24860;DHT22;12936;52.006;4.350;2023-03-03T04:33:15;3.90;99.90
24860;DHT22;12936;52.006;4.350;2023-03-03T04:35:45;3.90;99.90
24860;DHT22;12936;52.006;4.350;2023-03-03T04:38:13;3.90;99.90
24860;DHT22;12936;52.006;4.350;2023-03-03T04:40:41;3.80;99.90
24860;DHT22;12936;52.006;4.350;2023-03-03T04:43:10;3.90;99.90
24860;DHT22;12936;52.006;4.350;2023-03-03T04:45:39;3.90;99.90
24860;DHT22;12936;52.006;4.350;2023-03-03T04:48:07;3.80;99.90
24860;DHT22;12936;52.006;4.350;2023-03-03T04:50:36;3.80;99.90
24860;DHT22;12936;52.006;4.350;2023-03-03T04:53:05;3.80;99.90
24860;DHT22;12936;52.006;4.350;2023-03-03T04:55:35;3.90;99.90
24860;DHT22;12936;52.006;4.350;2023-03-03T04:58:03;4.00;99.90
24860;DHT22;12936;52.006;4.350;2023-03-03T05:00:31;4.00;99.90
24860;DHT22;12936;52.006;4.350;2023-03-03T05:03:00;4.00;99.90
24860;DHT22;12936;52.006;4.350;2023-03-03T05:05:28;4.00;99.90
24860;DHT22;12936;52.006;4.350;2023-03-03T05:07:56;4.00;99.90
24860;DHT22;12936;52.006;4.350;2023-03-03T05:10:25;4.00;99.90
24860;DHT22;12936;52.006;4.350;2023-03-03T05:12:53;4.00;99.90
24860;DHT22;12936;52.006;4.350;2023-03-03T05:15:24;4.00;99.90
24860;DHT22;12936;52.006;4.350;2023-03-03T05:17:52;4.00;99.90
24860;DHT22;12936;52.006;4.350;2023-03-03T05:20:22;4.00;99.90
24860;DHT22;12936;52.006;4.350;2023-03-03T05:22:51;4.00;99.90
24860;DHT22;12936;52.006;4.350;2023-03-03T05:25:19;4.00;99.90
24860;DHT22;12936;52.006;4.350;2023-03-03T05:27:49;4.00;99.90
24860;DHT22;12936;52.006;4.350;2023-03-03T05:30:17;4.10;99.90
24860;DHT22;12936;52.006;4.350;2023-03-03T05:32:45;4.10;99.90
24860;DHT22;12936;52.006;4.350;2023-03-03T05:35:13;4.10;99.90
24860;DHT22;12936;52.006;4.350;2023-03-03T05:37:41;4.00;99.90
24860;DHT22;12936;52.006;4.350;2023-03-03T05:40:13;4.00;99.90
24860;DHT22;12936;52.006;4.350;2023-03-03T05:42:41;4.00;99.90
24860;DHT22;12936;52.006;4.350;2023-03-03T05:45:11;4.10;99.90
24860;DHT22;12936;52.006;4.350;2023-03-03T05:47:39;4.10;99.90
24860;DHT22;12936;52.006;4.350;2023-03-03T05:50:09;4.10;99.90
24860;DHT22;12936;52.006;4.350;2023-03-03T05:52:37;4.10;99.90
24860;DHT22;12936;52.006;4.350;2023-03-03T05:55:09;4.10;99.90
24860;DHT22;12936;52.006;4.350;2023-03-03T05:57:38;4.10;99.90
24860;DHT22;12936;52.006;4.350;2023-03-03T06:00:08;4.20;99.90
24860;DHT22;12936;52.006;4.350;2023-03-03T06:02:38;4.20;99.90
24860;DHT22;12936;52.006;4.350;2023-03-03T06:05:06;4.20;99.90
24860;DHT22;12936;52.006;4.350;2023-03-03T06:07:35;4.20;99.90
24860;DHT22;12936;52.006;4.350;2023-03-03T06:10:04;4.20;99.90
24860;DHT22;12936;52.006;4.350;2023-03-03T06:12:32;4.20;99.90
24860;DHT22;12936;52.006;4.350;2023-03-03T06:15:00;4.20;99.90
24860;DHT22;12936;52.006;4.350;2023-03-03T06:17:29;4.20;99.90
24860;DHT22;12936;52.006;4.350;2023-03-03T06:19:58;4.20;99.90
24860;DHT22;12936;52.006;4.350;2023-03-03T06:22:26;4.30;99.90
24860;DHT22;12936;52.006;4.350;2023-03-03T06:24:54;4.30;99.90
24860;DHT22;12936;52.006;4.350;2023-03-03T06:27:22;4.30;99.90
24860;DHT22;12936;52.006;4.350;2023-03-03T06:29:51;4.30;99.90
24860;DHT22;12936;52.006;4.350;2023-03-03T06:32:19;4.30;99.90
24860;DHT22;12936;52.006;4.350;2023-03-03T06:34:47;4.30;99.90
24860;DHT22;12936;52.006;4.350;2023-03-03T06:37:16;4.30;99.90
24860;DHT22;12936;52.006;4.350;2023-03-03T06:39:44;4.40;99.90
24860;DHT22;12936;52.006;4.350;2023-03-03T06:42:12;4.30;99.90
24860;DHT22;12936;52.006;4.350;2023-03-03T06:44:40;4.40;99.90
24860;DHT22;12936;52.006;4.350;2023-03-03T06:47:09;4.30;99.90
24860;DHT22;12936;52.006;4.350;2023-03-03T06:49:37;4.40;99.90
24860;DHT22;12936;52.006;4.350;2023-03-03T06:52:11;4.40;99.90
24860;DHT22;12936;52.006;4.350;2023-03-03T06:54:41;4.40;99.90
24860;DHT22;12936;52.006;4.350;2023-03-03T06:57:16;4.40;99.90
24860;DHT22;12936;52.006;4.350;2023-03-03T06:59:46;4.40;99.90
24860;DHT22;12936;52.006;4.350;2023-03-03T07:02:17;4.40;99.90
24860;DHT22;12936;52.006;4.350;2023-03-03T07:04:45;4.50;99.90
24860;DHT22;12936;52.006;4.350;2023-03-03T07:07:17;4.40;99.90
24860;DHT22;12936;52.006;4.350;2023-03-03T07:09:48;4.50;99.90
24860;DHT22;12936;52.006;4.350;2023-03-03T07:12:19;4.50;99.90
24860;DHT22;12936;52.006;4.350;2023-03-03T07:14:52;4.50;99.90
24860;DHT22;12936;52.006;4.350;2023-03-03T07:17:23;4.50;99.90
24860;DHT22;12936;52.006;4.350;2023-03-03T07:19:52;4.50;99.90
24860;DHT22;12936;52.006;4.350;2023-03-03T07:22:23;4.50;99.90
24860;DHT22;12936;52.006;4.350;2023-03-03T07:24:54;4.50;99.90
24860;DHT22;12936;52.006;4.350;2023-03-03T07:27:25;4.50;99.90
24860;DHT22;12936;52.006;4.350;2023-03-03T07:30:18;4.50;99.90
24860;DHT22;12936;52.006;4.350;2023-03-03T07:32:48;4.60;99.90
24860;DHT22;12936;52.006;4.350;2023-03-03T07:35:27;4.60;99.90
24860;DHT22;12936;52.006;4.350;2023-03-03T07:37:56;4.70;99.90
24860;DHT22;12936;52.006;4.350;2023-03-03T07:40:33;4.80;99.90
24860;DHT22;12936;52.006;4.350;2023-03-03T07:46:23;4.80;99.90
24860;DHT22;12936;52.006;4.350;2023-03-03T07:48:55;4.80;99.90
24860;DHT22;12936;52.006;4.350;2023-03-03T07:51:26;4.90;99.90
24860;DHT22;12936;52.006;4.350;2023-03-03T07:54:27;4.90;99.90
24860;DHT22;12936;52.006;4.350;2023-03-03T07:57:06;4.90;99.90
24860;DHT22;12936;52.006;4.350;2023-03-03T07:59:43;5.00;99.90
24860;DHT22;12936;52.006;4.350;2023-03-03T08:02:32;5.00;99.90
24860;DHT22;12936;52.006;4.350;2023-03-03T08:05:23;5.00;99.90
24860;DHT22;12936;52.006;4.350;2023-03-03T08:07:56;5.10;99.90
24860;DHT22;12936;52.006;4.350;2023-03-03T08:10:34;5.10;99.90
24860;DHT22;12936;52.006;4.350;2023-03-03T08:13:16;5.20;99.90
24860;DHT22;12936;52.006;4.350;2023-03-03T08:15:44;5.20;99.90
24860;DHT22;12936;52.006;4.350;2023-03-03T08:18:20;5.20;99.90
24860;DHT22;12936;52.006;4.350;2023-03-03T08:20:51;5.30;99.90
24860;DHT22;12936;52.006;4.350;2023-03-03T08:23:20;5.30;99.90
24860;DHT22;12936;52.006;4.350;2023-03-03T08:25:49;5.30;99.90
24860;DHT22;12936;52.006;4.350;2023-03-03T08:28:20;5.30;99.90
24860;DHT22;12936;52.006;4.350;2023-03-03T08:30:49;5.40;99.90
24860;DHT22;12936;52.006;4.350;2023-03-03T08:33:25;5.50;99.90
24860;DHT22;12936;52.006;4.350;2023-03-03T08:35:54;5.50;99.90
24860;DHT22;12936;52.006;4.350;2023-03-03T08:38:22;5.60;99.90
24860;DHT22;12936;52.006;4.350;2023-03-03T08:40:51;5.60;99.90
24860;DHT22;12936;52.006;4.350;2023-03-03T08:43:20;5.70;99.90
24860;DHT22;12936;52.006;4.350;2023-03-03T08:45:51;5.70;99.90
24860;DHT22;12936;52.006;4.350;2023-03-03T08:48:20;5.70;99.90
24860;DHT22;12936;52.006;4.350;2023-03-03T08:50:48;5.70;99.90
24860;DHT22;12936;52.006;4.350;2023-03-03T08:53:36;5.90;99.90
24860;DHT22;12936;52.006;4.350;2023-03-03T08:56:06;5.90;99.90
24860;DHT22;12936;52.006;4.350;2023-03-03T08:58:35;5.90;99.90
24860;DHT22;12936;52.006;4.350;2023-03-03T09:01:12;6.00;99.90
24860;DHT22;12936;52.006;4.350;2023-03-03T09:03:41;6.00;99.90
24860;DHT22;12936;52.006;4.350;2023-03-03T09:06:10;6.00;99.90
24860;DHT22;12936;52.006;4.350;2023-03-03T09:08:38;6.00;99.90
24860;DHT22;12936;52.006;4.350;2023-03-03T09:11:09;6.10;99.90
24860;DHT22;12936;52.006;4.350;2023-03-03T09:13:40;6.20;99.90
24860;DHT22;12936;52.006;4.350;2023-03-03T09:16:12;6.30;99.90
24860;DHT22;12936;52.006;4.350;2023-03-03T09:18:41;6.30;99.90
24860;DHT22;12936;52.006;4.350;2023-03-03T09:21:19;6.40;99.90
24860;DHT22;12936;52.006;4.350;2023-03-03T09:23:53;6.50;99.90
24860;DHT22;12936;52.006;4.350;2023-03-03T09:26:27;6.60;99.90
24860;DHT22;12936;52.006;4.350;2023-03-03T09:29:17;6.60;99.90
24860;DHT22;12936;52.006;4.350;2023-03-03T09:31:48;6.70;99.90
24860;DHT22;12936;52.006;4.350;2023-03-03T09:34:22;6.70;99.90
24860;DHT22;12936;52.006;4.350;2023-03-03T09:36:52;6.90;99.90
24860;DHT22;12936;52.006;4.350;2023-03-03T09:39:22;6.90;99.90
24860;DHT22;12936;52.006;4.350;2023-03-03T09:42:23;7.10;99.90
24860;DHT22;12936;52.006;4.350;2023-03-03T09:45:12;7.00;99.90
24860;DHT22;12936;52.006;4.350;2023-03-03T09:50:55;6.90;99.90
24860;DHT22;12936;52.006;4.350;2023-03-03T09:53:40;6.90;99.90
24860;DHT22;12936;52.006;4.350;2023-03-03T09:56:15;6.90;99.90
24860;DHT22;12936;52.006;4.350;2023-03-03T09:58:55;6.80;99.90
24860;DHT22;12936;52.006;4.350;2023-03-03T10:01:51;6.80;99.90
24860;DHT22;12936;52.006;4.350;2023-03-03T10:04:46;6.80;99.90
24860;DHT22;12936;52.006;4.350;2023-03-03T10:07:25;6.80;99.90
24860;DHT22;12936;52.006;4.350;2023-03-03T10:13:10;6.90;99.90
24860;DHT22;12936;52.006;4.350;2023-03-03T10:15:50;6.90;99.90
24860;DHT22;12936;52.006;4.350;2023-03-03T10:18:29;6.90;99.90
24860;DHT22;12936;52.006;4.350;2023-03-03T10:21:08;7.00;99.90
24860;DHT22;12936;52.006;4.350;2023-03-03T10:23:55;6.90;99.90
24860;DHT22;12936;52.006;4.350;2023-03-03T10:26:58;7.00;99.90
24860;DHT22;12936;52.006;4.350;2023-03-03T10:29:45;7.00;99.90
24860;DHT22;12936;52.006;4.350;2023-03-03T10:32:41;7.10;99.90
24860;DHT22;12936;52.006;4.350;2023-03-03T10:35:52;7.10;99.90
24860;DHT22;12936;52.006;4.350;2023-03-03T10:38:45;7.10;99.90
24860;DHT22;12936;52.006;4.350;2023-03-03T10:41:38;7.10;99.90
24860;DHT22;12936;52.006;4.350;2023-03-03T10:44:22;7.20;99.90
24860;DHT22;12936;52.006;4.350;2023-03-03T10:47:09;7.10;99.90
24860;DHT22;12936;52.006;4.350;2023-03-03T10:49:52;7.20;99.90
24860;DHT22;12936;52.006;4.350;2023-03-03T10:52:32;7.20;99.90
24860;DHT22;12936;52.006;4.350;2023-03-03T11:00:55;7.20;99.90
24860;DHT22;12936;52.006;4.350;2023-03-03T11:04:02;7.30;99.90
24860;DHT22;12936;52.006;4.350;2023-03-03T11:06:42;7.40;99.90
24860;DHT22;12936;52.006;4.350;2023-03-03T11:09:30;7.50;99.90
24860;DHT22;12936;52.006;4.350;2023-03-03T11:12:19;7.50;99.90
24860;DHT22;12936;52.006;4.350;2023-03-03T11:14:55;7.60;99.90
24860;DHT22;12936;52.006;4.350;2023-03-03T11:17:36;7.70;99.90
24860;DHT22;12936;52.006;4.350;2023-03-03T11:20:30;7.80;99.90
24860;DHT22;12936;52.006;4.350;2023-03-03T11:23:07;7.80;99.90
24860;DHT22;12936;52.006;4.350;2023-03-03T11:25:42;7.80;99.90
24860;DHT22;12936;52.006;4.350;2023-03-03T11:28:22;7.80;99.90
24860;DHT22;12936;52.006;4.350;2023-03-03T11:31:04;7.80;99.90
24860;DHT22;12936;52.006;4.350;2023-03-03T11:33:40;7.90;99.90
24860;DHT22;12936;52.006;4.350;2023-03-03T11:36:17;8.00;99.90
24860;DHT22;12936;52.006;4.350;2023-03-03T11:38:53;8.10;99.90
24860;DHT22;12936;52.006;4.350;2023-03-03T11:41:32;8.10;99.90
24860;DHT22;12936;52.006;4.350;2023-03-03T11:44:14;8.10;99.90
24860;DHT22;12936;52.006;4.350;2023-03-03T11:46:46;8.30;99.90
24860;DHT22;12936;52.006;4.350;2023-03-03T11:49:21;8.30;99.90
24860;DHT22;12936;52.006;4.350;2023-03-03T11:51:58;8.50;99.90
24860;DHT22;12936;52.006;4.350;2023-03-03T11:54:33;8.40;99.90
24860;DHT22;12936;52.006;4.350;2023-03-03T11:57:15;8.50;99.90
24860;DHT22;12936;52.006;4.350;2023-03-03T11:59:54;8.50;99.90
24860;DHT22;12936;52.006;4.350;2023-03-03T12:02:50;8.60;99.90
24860;DHT22;12936;52.006;4.350;2023-03-03T12:05:32;8.70;99.90
24860;DHT22;12936;52.006;4.350;2023-03-03T12:08:07;8.80;99.90
24860;DHT22;12936;52.006;4.350;2023-03-03T12:10:44;8.80;99.90
24860;DHT22;12936;52.006;4.350;2023-03-03T12:13:25;8.80;99.90
24860;DHT22;12936;52.006;4.350;2023-03-03T12:16:04;8.90;99.90
24860;DHT22;12936;52.006;4.350;2023-03-03T12:18:45;9.00;99.90
24860;DHT22;12936;52.006;4.350;2023-03-03T12:21:32;9.00;99.90
24860;DHT22;12936;52.006;4.350;2023-03-03T12:24:15;9.00;99.90
24860;DHT22;12936;52.006;4.350;2023-03-03T12:26:53;9.00;99.90
24860;DHT22;12936;52.006;4.350;2023-03-03T12:29:35;9.00;99.90
24860;DHT22;12936;52.006;4.350;2023-03-03T12:32:16;9.00;99.90
24860;DHT22;12936;52.006;4.350;2023-03-03T12:34:51;8.90;99.90
24860;DHT22;12936;52.006;4.350;2023-03-03T12:40:12;8.90;99.90
24860;DHT22;12936;52.006;4.350;2023-03-03T12:43:06;8.80;99.90
24860;DHT22;12936;52.006;4.350;2023-03-03T12:45:47;8.80;99.90
24860;DHT22;12936;52.006;4.350;2023-03-03T12:48:18;8.70;99.90
24860;DHT22;12936;52.006;4.350;2023-03-03T12:50:56;8.80;99.90
24860;DHT22;12936;52.006;4.350;2023-03-03T12:53:47;8.80;99.90
24860;DHT22;12936;52.006;4.350;2023-03-03T12:56:24;8.80;99.90
24860;DHT22;12936;52.006;4.350;2023-03-03T12:59:00;8.80;99.90
24860;DHT22;12936;52.006;4.350;2023-03-03T13:01:42;8.80;99.90
24860;DHT22;12936;52.006;4.350;2023-03-03T13:04:25;8.90;99.90
24860;DHT22;12936;52.006;4.350;2023-03-03T13:07:01;9.00;99.90
24860;DHT22;12936;52.006;4.350;2023-03-03T13:09:39;9.00;99.90
24860;DHT22;12936;52.006;4.350;2023-03-03T13:12:29;8.90;99.90
24860;DHT22;12936;52.006;4.350;2023-03-03T13:15:05;9.00;99.90
24860;DHT22;12936;52.006;4.350;2023-03-03T13:17:40;9.00;99.90
24860;DHT22;12936;52.006;4.350;2023-03-03T13:20:21;9.00;99.90
24860;DHT22;12936;52.006;4.350;2023-03-03T13:22:56;9.10;99.90
24860;DHT22;12936;52.006;4.350;2023-03-03T13:25:44;9.10;99.90
24860;DHT22;12936;52.006;4.350;2023-03-03T13:28:22;9.10;99.90
24860;DHT22;12936;52.006;4.350;2023-03-03T13:30:57;9.20;99.90
24860;DHT22;12936;52.006;4.350;2023-03-03T13:33:33;9.20;99.90
24860;DHT22;12936;52.006;4.350;2023-03-03T13:36:07;9.20;99.90
24860;DHT22;12936;52.006;4.350;2023-03-03T13:38:39;9.20;99.90
24860;DHT22;12936;52.006;4.350;2023-03-03T13:41:16;9.30;99.90
24860;DHT22;12936;52.006;4.350;2023-03-03T13:43:49;9.40;99.90
24860;DHT22;12936;52.006;4.350;2023-03-03T13:46:25;9.40;99.90
24860;DHT22;12936;52.006;4.350;2023-03-03T13:49:10;9.50;99.90
24860;DHT22;12936;52.006;4.350;2023-03-03T13:51:44;9.60;99.90
24860;DHT22;12936;52.006;4.350;2023-03-03T13:54:24;9.70;99.90
24860;DHT22;12936;52.006;4.350;2023-03-03T13:57:17;9.60;99.90
24860;DHT22;12936;52.006;4.350;2023-03-03T13:59:53;9.70;99.90
24860;DHT22;12936;52.006;4.350;2023-03-03T14:02:41;9.70;99.90
24860;DHT22;12936;52.006;4.350;2023-03-03T14:05:22;9.70;99.90
24860;DHT22;12936;52.006;4.350;2023-03-03T14:07:58;9.60;99.90
24860;DHT22;12936;52.006;4.350;2023-03-03T14:10:30;9.70;99.90
24860;DHT22;12936;52.006;4.350;2023-03-03T14:13:04;9.60;99.90
24860;DHT22;12936;52.006;4.350;2023-03-03T14:15:35;9.60;99.90
24860;DHT22;12936;52.006;4.350;2023-03-03T14:18:19;9.60;99.90
24860;DHT22;12936;52.006;4.350;2023-03-03T14:20:51;9.60;99.90
24860;DHT22;12936;52.006;4.350;2023-03-03T14:23:24;9.50;99.90
24860;DHT22;12936;52.006;4.350;2023-03-03T14:25:59;9.60;99.90
24860;DHT22;12936;52.006;4.350;2023-03-03T14:28:38;9.60;99.90
24860;DHT22;12936;52.006;4.350;2023-03-03T14:31:22;9.60;99.90
24860;DHT22;12936;52.006;4.350;2023-03-03T14:33:58;9.60;99.90
24860;DHT22;12936;52.006;4.350;2023-03-03T14:36:34;9.60;99.90
24860;DHT22;12936;52.006;4.350;2023-03-03T14:39:26;9.50;99.90
24860;DHT22;12936;52.006;4.350;2023-03-03T14:41:56;9.50;99.90
24860;DHT22;12936;52.006;4.350;2023-03-03T14:44:27;9.50;99.90
24860;DHT22;12936;52.006;4.350;2023-03-03T14:47:15;9.50;99.90
24860;DHT22;12936;52.006;4.350;2023-03-03T14:49:45;9.50;99.90
24860;DHT22;12936;52.006;4.350;2023-03-03T14:52:23;9.40;99.90
24860;DHT22;12936;52.006;4.350;2023-03-03T14:54:53;9.40;99.90
24860;DHT22;12936;52.006;4.350;2023-03-03T14:57:22;9.30;99.90
24860;DHT22;12936;52.006;4.350;2023-03-03T15:00:27;9.30;99.90
24860;DHT22;12936;52.006;4.350;2023-03-03T15:03:07;9.30;99.90
24860;DHT22;12936;52.006;4.350;2023-03-03T15:05:54;9.30;99.90
24860;DHT22;12936;52.006;4.350;2023-03-03T15:08:31;9.20;99.90
24860;DHT22;12936;52.006;4.350;2023-03-03T15:11:13;9.20;99.90
24860;DHT22;12936;52.006;4.350;2023-03-03T15:13:44;9.20;99.90
24860;DHT22;12936;52.006;4.350;2023-03-03T15:16:16;9.20;99.90
24860;DHT22;12936;52.006;4.350;2023-03-03T15:21:39;9.20;99.90
24860;DHT22;12936;52.006;4.350;2023-03-03T15:24:16;9.20;99.90
24860;DHT22;12936;52.006;4.350;2023-03-03T15:26:58;9.20;99.90
24860;DHT22;12936;52.006;4.350;2023-03-03T15:29:31;9.30;99.90
24860;DHT22;12936;52.006;4.350;2023-03-03T15:32:09;9.30;99.90
24860;DHT22;12936;52.006;4.350;2023-03-03T15:34:45;9.30;99.90
24860;DHT22;12936;52.006;4.350;2023-03-03T15:37:26;9.20;99.90
24860;DHT22;12936;52.006;4.350;2023-03-03T15:40:02;9.20;99.90
24860;DHT22;12936;52.006;4.350;2023-03-03T15:42:35;9.20;99.90
24860;DHT22;12936;52.006;4.350;2023-03-03T15:45:13;9.20;99.90
24860;DHT22;12936;52.006;4.350;2023-03-03T15:47:57;9.10;99.90
24860;DHT22;12936;52.006;4.350;2023-03-03T15:50:38;9.10;99.90
24860;DHT22;12936;52.006;4.350;2023-03-03T15:53:20;9.10;99.90
24860;DHT22;12936;52.006;4.350;2023-03-03T15:56:03;9.10;99.90
24860;DHT22;12936;52.006;4.350;2023-03-03T16:01:55;9.00;99.90
24860;DHT22;12936;52.006;4.350;2023-03-03T16:04:30;9.10;99.90
24860;DHT22;12936;52.006;4.350;2023-03-03T16:07:06;9.10;99.90
24860;DHT22;12936;52.006;4.350;2023-03-03T16:09:48;9.00;99.90
24860;DHT22;12936;52.006;4.350;2023-03-03T16:12:28;8.90;99.90
24860;DHT22;12936;52.006;4.350;2023-03-03T16:15:14;8.90;99.90
24860;DHT22;12936;52.006;4.350;2023-03-03T16:17:50;8.80;99.90
24860;DHT22;12936;52.006;4.350;2023-03-03T16:20:22;8.70;99.90
24860;DHT22;12936;52.006;4.350;2023-03-03T16:23:22;8.70;99.90
24860;DHT22;12936;52.006;4.350;2023-03-03T16:26:11;8.60;99.90
24860;DHT22;12936;52.006;4.350;2023-03-03T16:28:54;8.60;99.90
24860;DHT22;12936;52.006;4.350;2023-03-03T16:31:29;8.50;99.90
24860;DHT22;12936;52.006;4.350;2023-03-03T16:34:08;8.40;99.90
24860;DHT22;12936;52.006;4.350;2023-03-03T16:36:54;8.40;99.90
24860;DHT22;12936;52.006;4.350;2023-03-03T16:39:31;8.40;99.90
24860;DHT22;12936;52.006;4.350;2023-03-03T16:42:03;8.40;99.90
24860;DHT22;12936;52.006;4.350;2023-03-03T16:44:45;8.40;99.90
24860;DHT22;12936;52.006;4.350;2023-03-03T16:47:26;8.40;99.90
24860;DHT22;12936;52.006;4.350;2023-03-03T16:50:11;8.40;99.90
24860;DHT22;12936;52.006;4.350;2023-03-03T16:52:46;8.40;99.90
24860;DHT22;12936;52.006;4.350;2023-03-03T16:55:18;8.40;99.90
24860;DHT22;12936;52.006;4.350;2023-03-03T16:57:56;8.40;99.90